createdAt,value
2018-01-05T00:00:10.028Z,0
2018-01-05T00:01:09.942Z,0
2018-01-05T00:02:09.991Z,0
2018-01-05T00:03:09.946Z,0
2018-01-05T00:04:09.943Z,0
2018-01-05T00:05:10.012Z,0
2018-01-05T00:06:10.084Z,0
2018-01-05T00:07:10.020Z,0
2018-01-05T00:08:10.061Z,0
2018-01-05T00:09:10.013Z,0
2018-01-05T00:10:10.084Z,0
2018-01-05T00:11:10.020Z,0
2018-01-05T00:12:10.089Z,0
2018-01-05T00:13:10.018Z,0
2018-01-05T00:14:10.088Z,0
2018-01-05T00:15:10.025Z,0
2018-01-05T00:16:10.112Z,0
2018-01-05T00:17:10.089Z,0
2018-01-05T00:18:10.018Z,0
2018-01-05T00:19:10.101Z,0
2018-01-05T00:20:10.092Z,0
2018-01-05T00:21:10.025Z,0
2018-01-05T00:22:10.092Z,0
2018-01-05T00:23:10.036Z,0
2018-01-05T00:24:10.028Z,0
2018-01-05T00:25:09.958Z,0
2018-01-05T00:26:10.043Z,0
2018-01-05T00:27:10.006Z,0
2018-01-05T00:28:09.999Z,0
2018-01-05T00:29:10.043Z,0
2018-01-05T00:30:10.045Z,0
2018-01-05T00:31:10.090Z,0
2018-01-05T00:32:10.091Z,0
2018-01-05T00:33:10.002Z,0
2018-01-05T00:34:10.026Z,0
2018-01-05T00:35:10.034Z,0
2018-01-05T00:36:10.034Z,0
2018-01-05T00:37:10.031Z,0
2018-01-05T00:38:10.107Z,0
2018-01-05T00:39:10.032Z,0
2018-01-05T00:40:10.038Z,0
2018-01-05T00:41:10.037Z,0
2018-01-05T00:42:10.112Z,0
2018-01-05T00:43:10.042Z,0
2018-01-05T00:44:10.036Z,0
2018-01-05T00:45:10.037Z,0
2018-01-05T00:46:10.106Z,0
2018-01-05T00:47:10.035Z,0
2018-01-05T00:48:10.109Z,0
2018-01-05T00:49:10.108Z,0
2018-01-05T00:50:10.037Z,0
2018-01-05T00:51:10.110Z,0
2018-01-05T00:52:10.132Z,0
2018-01-05T00:53:10.110Z,0
2018-01-05T00:54:10.047Z,0
2018-01-05T00:55:10.100Z,0
2018-01-05T00:56:10.082Z,0
2018-01-05T00:57:10.081Z,0
2018-01-05T00:58:10.063Z,0
2018-01-05T00:59:10.046Z,0
2018-01-05T01:00:10.083Z,0
2018-01-05T01:01:10.103Z,0
2018-01-05T01:02:10.014Z,0
2018-01-05T01:03:10.019Z,0
2018-01-05T01:04:10.136Z,0
2018-01-05T01:05:10.113Z,0
2018-01-05T01:06:10.062Z,0
2018-01-05T01:07:10.014Z,0
2018-01-05T01:08:10.020Z,0
2018-01-05T01:09:09.966Z,0
2018-01-05T01:10:10.065Z,0
2018-01-05T01:11:10.013Z,0
2018-01-05T01:12:10.019Z,0
2018-01-05T01:13:10.067Z,0
2018-01-05T01:14:09.973Z,0
2018-01-05T01:15:10.066Z,0
2018-01-05T01:16:10.029Z,0
2018-01-05T01:17:10.032Z,0
2018-01-05T01:18:10.117Z,0
2018-01-05T01:19:10.116Z,0
2018-01-05T01:20:10.113Z,0
2018-01-05T01:21:10.062Z,0
2018-01-05T01:22:10.011Z,0
2018-01-05T01:23:10.033Z,0
2018-01-05T01:24:10.123Z,0
2018-01-05T01:25:10.031Z,0
2018-01-05T01:26:10.089Z,0
2018-01-05T01:27:10.026Z,0
2018-01-05T01:28:10.030Z,0
2018-01-05T01:29:09.999Z,0
2018-01-05T01:30:10.138Z,0
2018-01-05T01:31:09.998Z,0
2018-01-05T01:32:10.020Z,0
2018-01-05T01:33:10.006Z,0
2018-01-05T01:34:09.992Z,0
2018-01-05T01:35:10.027Z,0
2018-01-05T01:36:10.084Z,0
2018-01-05T01:37:10.022Z,0
2018-01-05T01:38:10.041Z,0
2018-01-05T01:39:10.067Z,0
2018-01-05T01:40:10.088Z,0
2018-01-05T01:41:10.127Z,0
2018-01-05T01:42:10.109Z,0
2018-01-05T01:43:10.157Z,0
2018-01-05T01:44:10.136Z,0
2018-01-05T01:45:10.068Z,0
2018-01-05T01:46:10.068Z,0
2018-01-05T01:47:10.053Z,0
2018-01-05T01:48:10.130Z,0
2018-01-05T01:49:10.035Z,0
2018-01-05T01:50:10.130Z,0
2018-01-05T01:51:10.106Z,0
2018-01-05T01:52:10.035Z,0
2018-01-05T01:53:10.111Z,0
2018-01-05T01:54:10.020Z,0
2018-01-05T01:55:10.052Z,0
2018-01-05T01:56:10.084Z,0
2018-01-05T01:57:10.210Z,0
2018-01-05T01:58:10.150Z,0
2018-01-05T01:59:10.126Z,0
2018-01-05T02:00:10.083Z,0
2018-01-05T02:01:10.116Z,0
2018-01-05T02:02:10.081Z,0
2018-01-05T02:03:10.151Z,0
2018-01-05T02:04:10.089Z,0
2018-01-05T02:05:10.084Z,0
2018-01-05T02:06:10.121Z,0
2018-01-05T02:07:10.142Z,0
2018-01-05T02:08:10.142Z,0
2018-01-05T02:09:10.103Z,0
2018-01-05T02:10:10.086Z,0
2018-01-05T02:11:10.125Z,0
2018-01-05T02:12:10.125Z,0
2018-01-05T02:13:10.050Z,0
2018-01-05T02:14:10.127Z,0
2018-01-05T02:15:10.040Z,0
2018-01-05T02:16:10.091Z,0
2018-01-05T02:17:10.164Z,0
2018-01-05T02:18:10.099Z,0
2018-01-05T02:19:10.096Z,0
2018-01-05T02:20:10.176Z,0
2018-01-05T02:21:10.098Z,0
2018-01-05T02:22:10.109Z,0
2018-01-05T02:23:10.099Z,0
2018-01-05T02:24:10.167Z,0
2018-01-05T02:25:10.100Z,0
2018-01-05T02:26:10.102Z,0
2018-01-05T02:27:10.167Z,0
2018-01-05T02:28:10.171Z,0
2018-01-05T02:29:10.104Z,0
2018-01-05T02:30:10.168Z,0
2018-01-05T02:31:10.105Z,0
2018-01-05T02:32:10.174Z,0
2018-01-05T02:33:10.108Z,0
2018-01-05T02:34:10.170Z,0
2018-01-05T02:35:10.105Z,0
2018-01-05T02:36:10.173Z,0
2018-01-05T02:37:10.098Z,0
2018-01-05T02:38:10.108Z,0
2018-01-05T02:39:10.180Z,0
2018-01-05T02:40:10.106Z,0
2018-01-05T02:41:10.176Z,0
2018-01-05T02:42:10.108Z,0
2018-01-05T02:43:10.177Z,0
2018-01-05T02:44:10.176Z,0
2018-01-05T02:45:10.117Z,0
2018-01-05T02:46:10.124Z,0
2018-01-05T02:47:10.062Z,0
2018-01-05T02:48:10.174Z,0
2018-01-05T02:49:10.115Z,0
2018-01-05T02:50:10.148Z,0
2018-01-05T02:51:10.115Z,0
2018-01-05T02:52:10.085Z,0
2018-01-05T02:53:10.143Z,0
2018-01-05T02:54:10.133Z,0
2018-01-05T02:55:10.110Z,0
2018-01-05T02:56:10.206Z,0
2018-01-05T02:57:10.121Z,0
2018-01-05T02:58:10.120Z,0
2018-01-05T02:59:10.187Z,0
2018-01-05T03:00:10.122Z,0
2018-01-05T03:01:10.188Z,0
2018-01-05T03:02:10.122Z,0
2018-01-05T03:03:10.196Z,0
2018-01-05T03:04:10.125Z,0
2018-01-05T03:05:10.190Z,0
2018-01-05T03:06:10.124Z,0
2018-01-05T03:07:10.192Z,0
2018-01-05T03:08:10.126Z,0
2018-01-05T03:09:10.193Z,0
2018-01-05T03:10:10.128Z,0
2018-01-05T03:11:10.196Z,0
2018-01-05T03:12:10.124Z,0
2018-01-05T03:13:10.203Z,0
2018-01-05T03:14:10.127Z,0
2018-01-05T03:15:10.199Z,0
2018-01-05T03:16:10.196Z,0
2018-01-05T03:17:10.100Z,0
2018-01-05T03:18:10.203Z,0
2018-01-05T03:19:10.132Z,0
2018-01-05T03:20:10.168Z,0
2018-01-05T03:21:10.145Z,0
2018-01-05T03:22:10.191Z,0
2018-01-05T03:23:10.131Z,0
2018-01-05T03:24:10.080Z,0
2018-01-05T03:25:10.201Z,0
2018-01-05T03:26:10.132Z,0
2018-01-05T03:27:10.205Z,0
2018-01-05T03:28:10.142Z,0
2018-01-05T03:29:10.293Z,0
2018-01-05T03:30:10.209Z,0
2018-01-05T03:31:10.142Z,0
2018-01-05T03:32:10.170Z,0
2018-01-05T03:33:10.205Z,0
2018-01-05T03:34:10.135Z,0
2018-01-05T03:35:10.207Z,0
2018-01-05T03:36:10.138Z,0
2018-01-05T03:37:10.213Z,0
2018-01-05T03:38:10.147Z,0
2018-01-05T03:39:10.216Z,0
2018-01-05T03:40:10.146Z,0
2018-01-05T03:41:10.212Z,0
2018-01-05T03:42:10.144Z,0
2018-01-05T03:43:10.212Z,0
2018-01-05T03:44:10.147Z,0
2018-01-05T03:45:10.214Z,0
2018-01-05T03:46:10.145Z,0
2018-01-05T03:47:10.217Z,0
2018-01-05T03:48:10.151Z,0
2018-01-05T03:49:10.147Z,0
2018-01-05T03:50:10.220Z,0
2018-01-05T03:51:10.149Z,0
2018-01-05T03:52:10.221Z,0
2018-01-05T03:53:10.173Z,0
2018-01-05T03:54:10.219Z,0
2018-01-05T03:55:10.153Z,0
2018-01-05T03:56:10.167Z,0
2018-01-05T03:57:10.169Z,0
2018-01-05T03:58:10.169Z,0
2018-01-05T03:59:10.117Z,0
2018-01-05T04:00:10.167Z,0
2018-01-05T04:01:10.121Z,0
2018-01-05T04:02:10.168Z,0
2018-01-05T04:03:10.174Z,0
2018-01-05T04:04:10.172Z,0
2018-01-05T04:05:10.176Z,0
2018-01-05T04:06:10.158Z,0
2018-01-05T04:07:10.228Z,0
2018-01-05T04:08:10.226Z,0
2018-01-05T04:09:10.231Z,0
2018-01-05T04:10:10.125Z,0
2018-01-05T04:11:10.177Z,0
2018-01-05T04:12:10.163Z,0
2018-01-05T04:13:10.231Z,0
2018-01-05T04:14:10.162Z,0
2018-01-05T04:15:10.239Z,0
2018-01-05T04:16:10.168Z,0
2018-01-05T04:17:10.233Z,0
2018-01-05T04:18:10.166Z,0
2018-01-05T04:19:10.235Z,0
2018-01-05T04:20:10.240Z,0
2018-01-05T04:21:10.173Z,0
2018-01-05T04:22:10.237Z,0
2018-01-05T04:23:10.171Z,0
2018-01-05T04:24:10.236Z,0
2018-01-05T04:25:10.169Z,0
2018-01-05T04:26:10.245Z,0
2018-01-05T04:27:10.168Z,0
2018-01-05T04:28:10.241Z,0
2018-01-05T04:29:10.172Z,0
2018-01-05T04:30:10.242Z,0
2018-01-05T04:31:10.174Z,0
2018-01-05T04:32:10.243Z,0
2018-01-05T04:33:10.175Z,0
2018-01-05T04:34:10.247Z,0
2018-01-05T04:35:10.191Z,0
2018-01-05T04:36:10.246Z,0
2018-01-05T04:37:10.249Z,0
2018-01-05T04:38:10.176Z,0
2018-01-05T04:39:10.249Z,0
2018-01-05T04:40:10.182Z,0
2018-01-05T04:41:10.249Z,0
2018-01-05T04:42:10.250Z,0
2018-01-05T04:43:10.182Z,0
2018-01-05T04:44:10.272Z,0
2018-01-05T04:45:10.186Z,0
2018-01-05T04:46:10.252Z,0
2018-01-05T04:47:10.258Z,0
2018-01-05T04:48:10.187Z,0
2018-01-05T04:49:10.254Z,0
2018-01-05T04:50:10.190Z,0
2018-01-05T04:51:10.253Z,0
2018-01-05T04:52:10.194Z,0
2018-01-05T04:53:10.190Z,0
2018-01-05T04:54:10.262Z,0
2018-01-05T04:55:10.189Z,0
2018-01-05T04:56:10.187Z,0
2018-01-05T04:57:10.138Z,0
2018-01-05T04:58:10.192Z,0
2018-01-05T04:59:10.263Z,0
2018-01-05T05:00:10.265Z,0
2018-01-05T05:01:10.191Z,0
2018-01-05T05:02:10.191Z,0
2018-01-05T05:03:10.194Z,0
2018-01-05T05:04:10.253Z,0
2018-01-05T05:05:10.192Z,0
2018-01-05T05:06:10.483Z,0
2018-01-05T05:07:10.201Z,0
2018-01-05T05:08:10.265Z,0
2018-01-05T05:09:10.267Z,0
2018-01-05T05:10:10.202Z,0
2018-01-05T05:11:10.267Z,0
2018-01-05T05:12:10.266Z,0
2018-01-05T05:13:10.267Z,0
2018-01-05T05:14:10.204Z,0
2018-01-05T05:15:10.267Z,0
2018-01-05T05:16:10.137Z,0
2018-01-05T05:17:10.231Z,0
2018-01-05T05:18:10.161Z,0
2018-01-05T05:19:10.160Z,0
2018-01-05T05:20:10.172Z,0
2018-01-05T05:21:10.194Z,0
2018-01-05T05:22:10.159Z,0
2018-01-05T05:23:10.224Z,0
2018-01-05T05:24:10.139Z,0
2018-01-05T05:25:10.196Z,0
2018-01-05T05:26:10.278Z,0
2018-01-05T05:27:10.229Z,0
2018-01-05T05:28:10.235Z,0
2018-01-05T05:29:10.209Z,0
2018-01-05T05:30:10.209Z,0
2018-01-05T05:31:10.279Z,0
2018-01-05T05:32:10.216Z,0
2018-01-05T05:33:10.279Z,0
2018-01-05T05:34:10.231Z,0
2018-01-05T05:35:10.280Z,0
2018-01-05T05:36:10.215Z,0
2018-01-05T05:37:10.282Z,0
2018-01-05T05:38:10.256Z,0
2018-01-05T05:39:10.213Z,0
2018-01-05T05:40:10.284Z,0
2018-01-05T05:41:10.262Z,0
2018-01-05T05:42:10.215Z,0
2018-01-05T05:43:10.286Z,0
2018-01-05T05:44:10.223Z,0
2018-01-05T05:45:10.286Z,0
2018-01-05T05:46:10.227Z,0
2018-01-05T05:47:10.240Z,0
2018-01-05T05:48:10.190Z,0
2018-01-05T05:49:10.281Z,0
2018-01-05T05:50:10.240Z,0
2018-01-05T05:51:10.258Z,0
2018-01-05T05:52:10.284Z,0
2018-01-05T05:53:10.289Z,0
2018-01-05T05:54:10.292Z,0
2018-01-05T05:55:10.195Z,0
2018-01-05T05:56:10.293Z,0
2018-01-05T05:57:10.296Z,0
2018-01-05T05:58:10.225Z,0
2018-01-05T05:59:10.296Z,0
2018-01-05T06:00:10.258Z,0
2018-01-05T06:01:10.231Z,0
2018-01-05T06:02:10.297Z,0
2018-01-05T06:03:10.296Z,0
2018-01-05T06:04:10.298Z,0
2018-01-05T06:05:10.237Z,0
2018-01-05T06:06:10.232Z,0
2018-01-05T06:07:10.228Z,0
2018-01-05T06:08:10.232Z,0
2018-01-05T06:09:10.252Z,0
2018-01-05T06:10:10.232Z,0
2018-01-05T06:11:10.195Z,0
2018-01-05T06:12:10.187Z,0
2018-01-05T06:13:10.257Z,0
2018-01-05T06:14:10.200Z,0
2018-01-05T06:15:10.259Z,0
2018-01-05T06:16:10.244Z,0
2018-01-05T06:17:10.307Z,0
2018-01-05T06:18:10.240Z,0
2018-01-05T06:19:10.309Z,0
2018-01-05T06:20:10.310Z,0
2018-01-05T06:21:10.248Z,0
2018-01-05T06:22:10.249Z,0
2018-01-05T06:23:10.310Z,0
2018-01-05T06:24:10.241Z,0
2018-01-05T06:25:10.314Z,0
2018-01-05T06:26:10.210Z,0
2018-01-05T06:27:10.214Z,0
2018-01-05T06:28:10.279Z,0
2018-01-05T06:29:10.311Z,0
2018-01-05T06:30:10.277Z,0
2018-01-05T06:31:10.243Z,0
2018-01-05T06:32:10.306Z,0
2018-01-05T06:33:10.217Z,0
2018-01-05T06:34:10.214Z,0
2018-01-05T06:35:10.283Z,0
2018-01-05T06:36:10.213Z,0
2018-01-05T06:37:10.177Z,0
2018-01-05T06:38:10.310Z,0
2018-01-05T06:39:10.185Z,0
2018-01-05T06:40:10.245Z,0
2018-01-05T06:41:10.216Z,0
2018-01-05T06:42:10.286Z,0
2018-01-05T06:43:10.309Z,0
2018-01-05T06:44:10.253Z,0
2018-01-05T06:45:10.269Z,0
2018-01-05T06:46:10.328Z,0
2018-01-05T06:47:10.322Z,0
2018-01-05T06:48:10.270Z,0
2018-01-05T06:49:10.326Z,0
2018-01-05T06:50:10.264Z,0
2018-01-05T06:51:10.260Z,0
2018-01-05T06:52:10.327Z,0
2018-01-05T06:53:10.256Z,0
2018-01-05T06:54:10.326Z,0
2018-01-05T06:55:10.328Z,0
2018-01-05T06:56:10.340Z,0
2018-01-05T06:57:10.260Z,0
2018-01-05T06:58:10.330Z,0
2018-01-05T06:59:10.267Z,0
2018-01-05T07:00:10.333Z,0
2018-01-05T07:01:10.271Z,0
2018-01-05T07:02:10.333Z,0
2018-01-05T07:03:10.266Z,0
2018-01-05T07:04:10.332Z,0
2018-01-05T07:05:10.360Z,0
2018-01-05T07:06:10.336Z,56
2018-01-05T07:07:10.337Z,60
2018-01-05T07:08:10.270Z,72
2018-01-05T07:09:10.344Z,92
2018-01-05T07:10:10.265Z,100
2018-01-05T07:11:10.302Z,112
2018-01-05T07:12:10.342Z,120
2018-01-05T07:13:10.338Z,136
2018-01-05T07:14:10.293Z,148
2018-01-05T07:15:10.340Z,172
2018-01-05T07:16:10.404Z,204
2018-01-05T07:17:10.343Z,232
2018-01-05T07:18:10.309Z,248
2018-01-05T07:19:10.346Z,260
2018-01-05T07:20:10.273Z,300
2018-01-05T07:21:10.348Z,336
2018-01-05T07:22:10.279Z,372
2018-01-05T07:23:10.345Z,404
2018-01-05T07:24:10.277Z,440
2018-01-05T07:25:10.345Z,476
2018-01-05T07:26:10.247Z,512
2018-01-05T07:27:10.294Z,556
2018-01-05T07:28:10.214Z,604
2018-01-05T07:29:10.335Z,652
2018-01-05T07:30:10.346Z,696
2018-01-05T07:31:10.248Z,736
2018-01-05T07:32:10.250Z,772
2018-01-05T07:33:10.236Z,800
2018-01-05T07:34:10.238Z,816
2018-01-05T07:35:10.341Z,856
2018-01-05T07:36:10.316Z,896
2018-01-05T07:37:10.322Z,920
2018-01-05T07:38:10.322Z,944
2018-01-05T07:39:10.239Z,916
2018-01-05T07:40:10.321Z,896
2018-01-05T07:41:10.242Z,912
2018-01-05T07:42:10.264Z,912
2018-01-05T07:43:10.221Z,864
2018-01-05T07:44:10.357Z,892
2018-01-05T07:45:10.244Z,880
2018-01-05T07:46:10.226Z,852
2018-01-05T07:47:10.319Z,912
2018-01-05T07:48:10.271Z,972
2018-01-05T07:49:10.293Z,916
2018-01-05T07:50:10.249Z,872
2018-01-05T07:51:10.222Z,900
2018-01-05T07:52:10.324Z,1008
2018-01-05T07:53:10.293Z,1104
2018-01-05T07:54:10.293Z,1316
2018-01-05T07:55:10.351Z,1612
2018-01-05T07:56:10.334Z,1960
2018-01-05T07:57:10.365Z,2392
2018-01-05T07:58:10.294Z,2804
2018-01-05T07:59:10.366Z,2872
2018-01-05T08:00:10.518Z,2972
2018-01-05T08:01:10.296Z,3132
2018-01-05T08:02:10.368Z,3360
2018-01-05T08:03:10.296Z,4024
2018-01-05T08:04:10.273Z,4648
2018-01-05T08:05:10.300Z,5172
2018-01-05T08:06:10.368Z,5076
2018-01-05T08:07:10.369Z,4840
2018-01-05T08:08:10.298Z,4776
2018-01-05T08:09:10.299Z,4716
2018-01-05T08:10:10.371Z,4616
2018-01-05T08:11:10.298Z,4832
2018-01-05T08:12:10.374Z,4972
2018-01-05T08:13:10.304Z,4136
2018-01-05T08:14:10.374Z,3716
2018-01-05T08:15:10.300Z,3428
2018-01-05T08:16:10.300Z,3240
2018-01-05T08:17:10.305Z,3252
2018-01-05T08:18:10.263Z,3592
2018-01-05T08:19:10.310Z,4108
2018-01-05T08:20:10.376Z,4308
2018-01-05T08:21:10.379Z,4908
2018-01-05T08:22:10.345Z,5060
2018-01-05T08:23:10.377Z,5264
2018-01-05T08:24:10.309Z,5536
2018-01-05T08:25:10.383Z,4860
2018-01-05T08:26:10.382Z,3944
2018-01-05T08:27:10.311Z,3368
2018-01-05T08:28:10.384Z,3260
2018-01-05T08:29:10.306Z,2864
2018-01-05T08:30:10.384Z,3388
2018-01-05T08:31:10.307Z,3724
2018-01-05T08:32:10.317Z,3812
2018-01-05T08:33:10.388Z,4032
2018-01-05T08:34:10.316Z,4016
2018-01-05T08:35:10.391Z,4488
2018-01-05T08:36:10.317Z,5040
2018-01-05T08:37:10.241Z,5652
2018-01-05T08:38:10.245Z,6136
2018-01-05T08:39:10.241Z,7008
2018-01-05T08:40:10.286Z,4996
2018-01-05T08:41:10.290Z,2888
2018-01-05T08:42:10.340Z,2416
2018-01-05T08:43:10.285Z,2700
2018-01-05T08:44:10.291Z,2516
2018-01-05T08:45:10.342Z,2880
2018-01-05T08:46:10.384Z,4276
2018-01-05T08:47:10.402Z,5864
2018-01-05T08:48:10.396Z,7396
2018-01-05T08:49:10.329Z,7960
2018-01-05T08:50:10.396Z,7640
2018-01-05T08:51:10.332Z,7908
2018-01-05T08:52:10.399Z,8232
2018-01-05T08:53:10.330Z,8132
2018-01-05T08:54:10.405Z,8820
2018-01-05T08:55:10.400Z,9972
2018-01-05T08:56:10.403Z,10148
2018-01-05T08:57:10.304Z,10432
2018-01-05T08:58:10.403Z,10088
2018-01-05T08:59:10.334Z,10116
2018-01-05T09:00:10.305Z,10772
2018-01-05T09:01:10.357Z,10580
2018-01-05T09:02:10.404Z,10892
2018-01-05T09:03:10.311Z,10984
2018-01-05T09:04:10.290Z,11352
2018-01-05T09:05:10.399Z,12008
2018-01-05T09:06:10.278Z,11512
2018-01-05T09:07:10.335Z,11488
2018-01-05T09:08:10.410Z,11724
2018-01-05T09:09:10.337Z,12584
2018-01-05T09:10:10.411Z,12480
2018-01-05T09:11:10.411Z,14292
2018-01-05T09:12:10.339Z,14904
2018-01-05T09:13:10.417Z,16384
2018-01-05T09:14:10.337Z,17528
2018-01-05T09:15:10.441Z,14640
2018-01-05T09:16:10.410Z,13092
2018-01-05T09:17:10.414Z,13260
2018-01-05T09:18:10.341Z,15160
2018-01-05T09:19:10.413Z,14532
2018-01-05T09:20:10.343Z,14404
2018-01-05T09:21:10.418Z,12168
2018-01-05T09:22:10.342Z,10460
2018-01-05T09:23:10.340Z,11416
2018-01-05T09:24:10.345Z,10236
2018-01-05T09:25:10.347Z,9944
2018-01-05T09:26:10.419Z,10120
2018-01-05T09:27:10.290Z,10696
2018-01-05T09:28:10.361Z,9500
2018-01-05T09:29:10.361Z,7636
2018-01-05T09:30:10.357Z,12132
2018-01-05T09:31:10.310Z,13892
2018-01-05T09:32:10.273Z,12408
2018-01-05T09:33:10.322Z,15636
2018-01-05T09:34:10.272Z,19028
2018-01-05T09:35:10.362Z,22912
2018-01-05T09:36:10.312Z,23712
2018-01-05T09:37:10.413Z,16808
2018-01-05T09:38:10.410Z,12136
2018-01-05T09:39:10.322Z,8448
2018-01-05T09:40:10.428Z,6912
2018-01-05T09:41:10.396Z,5864
2018-01-05T09:42:10.388Z,4640
2018-01-05T09:43:10.331Z,4100
2018-01-05T09:44:10.308Z,4400
2018-01-05T09:45:10.375Z,4244
2018-01-05T09:46:10.331Z,4260
2018-01-05T09:47:10.430Z,3856
2018-01-05T09:48:10.357Z,3400
2018-01-05T09:49:10.431Z,3680
2018-01-05T09:50:10.362Z,3520
2018-01-05T09:51:10.362Z,3372
2018-01-05T09:52:10.434Z,3296
2018-01-05T09:53:10.363Z,3964
2018-01-05T09:54:10.434Z,3792
2018-01-05T09:55:10.364Z,3360
2018-01-05T09:56:10.436Z,2900
2018-01-05T09:57:10.360Z,2588
2018-01-05T09:58:10.319Z,3164
2018-01-05T09:59:10.400Z,5476
2018-01-05T10:00:10.368Z,6796
2018-01-05T10:01:10.423Z,6600
2018-01-05T10:02:10.343Z,6452
2018-01-05T10:03:10.437Z,7920
2018-01-05T10:04:10.320Z,11444
2018-01-05T10:05:10.363Z,15300
2018-01-05T10:06:10.343Z,17192
2018-01-05T10:07:10.370Z,20472
2018-01-05T10:08:10.442Z,21440
2018-01-05T10:09:10.420Z,19220
2018-01-05T10:10:10.452Z,16020
2018-01-05T10:11:10.373Z,12524
2018-01-05T10:12:10.446Z,11100
2018-01-05T10:13:10.377Z,11988
2018-01-05T10:14:10.380Z,13352
2018-01-05T10:15:10.450Z,13796
2018-01-05T10:16:10.375Z,15060
2018-01-05T10:17:10.450Z,16432
2018-01-05T10:18:10.378Z,17988
2018-01-05T10:19:10.377Z,19580
2018-01-05T10:20:10.383Z,22272
2018-01-05T10:21:10.451Z,23904
2018-01-05T10:22:10.382Z,24576
2018-01-05T10:23:10.454Z,24512
2018-01-05T10:24:10.384Z,23520
2018-01-05T10:25:10.454Z,21888
2018-01-05T10:26:10.384Z,19640
2018-01-05T10:27:10.454Z,18364
2018-01-05T10:28:10.385Z,16572
2018-01-05T10:29:10.383Z,16832
2018-01-05T10:30:10.458Z,17836
2018-01-05T10:31:10.384Z,17444
2018-01-05T10:32:10.392Z,17460
2018-01-05T10:33:10.458Z,19148
2018-01-05T10:34:10.390Z,20100
2018-01-05T10:35:10.464Z,20040
2018-01-05T10:36:10.395Z,18836
2018-01-05T10:37:10.462Z,18272
2018-01-05T10:38:10.392Z,18708
2018-01-05T10:39:10.462Z,20448
2018-01-05T10:40:10.392Z,22336
2018-01-05T10:41:10.465Z,21568
2018-01-05T10:42:10.390Z,21120
2018-01-05T10:43:10.466Z,20512
2018-01-05T10:44:10.394Z,19536
2018-01-05T10:45:10.392Z,19148
2018-01-05T10:46:10.469Z,18392
2018-01-05T10:47:10.397Z,18508
2018-01-05T10:48:10.467Z,18792
2018-01-05T10:49:10.350Z,17804
2018-01-05T10:50:10.437Z,17076
2018-01-05T10:51:10.400Z,15956
2018-01-05T10:52:10.472Z,15608
2018-01-05T10:53:10.472Z,14888
2018-01-05T10:54:10.397Z,14248
2018-01-05T10:55:10.472Z,13500
2018-01-05T10:56:10.470Z,13472
2018-01-05T10:57:10.398Z,13724
2018-01-05T10:58:10.478Z,14244
2018-01-05T10:59:10.403Z,15248
2018-01-05T11:00:10.475Z,17256
2018-01-05T11:01:10.405Z,19356
2018-01-05T11:02:10.475Z,20496
2018-01-05T11:03:10.405Z,18932
2018-01-05T11:04:10.480Z,18016
2018-01-05T11:05:10.422Z,18776
2018-01-05T11:06:10.480Z,19868
2018-01-05T11:07:10.392Z,19560
2018-01-05T11:08:10.423Z,20696
2018-01-05T11:10:10.478Z,26976
2018-01-05T11:11:10.388Z,29184
2018-01-05T11:12:10.381Z,27424
2018-01-05T11:13:10.405Z,25952
2018-01-05T11:14:10.434Z,25216
2018-01-05T11:15:10.340Z,27104
2018-01-05T11:16:10.409Z,28288
2018-01-05T11:17:10.351Z,38432
2018-01-05T11:18:10.441Z,27744
2018-01-05T11:19:10.429Z,26848
2018-01-05T11:20:10.373Z,27744
2018-01-05T11:21:10.374Z,27712
2018-01-05T11:22:10.445Z,22112
2018-01-05T11:23:10.374Z,19664
2018-01-05T11:24:10.449Z,18404
2018-01-05T11:25:10.374Z,16068
2018-01-05T11:26:10.343Z,15104
2018-01-05T11:27:10.493Z,15848
2018-01-05T11:28:10.436Z,17680
2018-01-05T11:29:10.422Z,19680
2018-01-05T11:30:10.493Z,21312
2018-01-05T11:31:10.420Z,19020
2018-01-05T11:32:10.496Z,17676
2018-01-05T11:33:10.428Z,16228
2018-01-05T11:34:10.495Z,15324
2018-01-05T11:35:10.424Z,16764
2018-01-05T11:36:10.498Z,17700
2018-01-05T11:37:10.429Z,18052
2018-01-05T11:38:10.584Z,17396
2018-01-05T11:39:10.500Z,16916
2018-01-05T11:40:10.425Z,16236
2018-01-05T11:41:10.500Z,16720
2018-01-05T11:42:10.427Z,17540
2018-01-05T11:43:10.502Z,17452
2018-01-05T11:44:10.450Z,18628
2018-01-05T11:45:10.429Z,19876
2018-01-05T11:46:10.502Z,20272
2018-01-05T11:47:10.387Z,20084
2018-01-05T11:48:10.358Z,19472
2018-01-05T11:49:10.396Z,19240
2018-01-05T11:50:10.361Z,19896
2018-01-05T11:51:10.411Z,20532
2018-01-05T11:52:10.363Z,21312
2018-01-05T11:53:10.453Z,22016
2018-01-05T11:54:10.433Z,22240
2018-01-05T11:55:10.361Z,22304
2018-01-05T11:56:10.396Z,22560
2018-01-05T11:57:10.472Z,21888
2018-01-05T11:58:10.468Z,21024
2018-01-05T11:59:10.471Z,19772
2018-01-05T12:00:10.394Z,19348
2018-01-05T12:01:10.364Z,19400
2018-01-05T12:02:10.464Z,20344
2018-01-05T12:03:10.415Z,22080
2018-01-05T12:04:10.397Z,24064
2018-01-05T12:05:10.399Z,25184
2018-01-05T12:06:10.474Z,24416
2018-01-05T12:07:10.510Z,23008
2018-01-05T12:08:10.399Z,21696
2018-01-05T12:09:10.422Z,21792
2018-01-05T12:10:10.382Z,22240
2018-01-05T12:11:10.379Z,21472
2018-01-05T12:12:10.503Z,19848
2018-01-05T12:13:10.441Z,18888
2018-01-05T12:14:10.484Z,18520
2018-01-05T12:15:10.405Z,18720
2018-01-05T12:16:10.508Z,18960
2018-01-05T12:17:10.345Z,19000
2018-01-05T12:18:10.416Z,19088
2018-01-05T12:19:10.462Z,19024
2018-01-05T12:20:10.374Z,19200
2018-01-05T12:21:10.351Z,19556
2018-01-05T12:22:10.519Z,20320
2018-01-05T12:23:10.472Z,21408
2018-01-05T12:24:10.348Z,21824
2018-01-05T12:25:10.351Z,20572
2018-01-05T12:26:10.465Z,19312
2018-01-05T12:27:10.529Z,18308
2018-01-05T12:28:10.452Z,17444
2018-01-05T12:29:10.531Z,16432
2018-01-05T12:30:10.457Z,16196
2018-01-05T12:31:10.567Z,17072
2018-01-05T12:32:10.464Z,18628
2018-01-05T12:33:10.531Z,19492
2018-01-05T12:34:10.459Z,19012
2018-01-05T12:35:10.618Z,18432
2018-01-05T12:36:10.533Z,18916
2018-01-05T12:37:10.554Z,19668
2018-01-05T12:38:10.518Z,20016
2018-01-05T12:39:10.410Z,21056
2018-01-05T12:40:10.479Z,22048
2018-01-05T12:41:10.427Z,22144
2018-01-05T12:42:10.498Z,21280
2018-01-05T12:43:10.448Z,19832
2018-01-05T12:44:10.537Z,18868
2018-01-05T12:45:10.500Z,17888
2018-01-05T12:46:10.480Z,16908
2018-01-05T12:47:10.538Z,16260
2018-01-05T12:48:10.472Z,16140
2018-01-05T12:49:10.540Z,16728
2018-01-05T12:50:10.467Z,17192
2018-01-05T12:51:10.544Z,16440
2018-01-05T12:52:10.469Z,15216
2018-01-05T12:53:10.543Z,13664
2018-01-05T12:54:10.496Z,13024
2018-01-05T12:55:10.547Z,13540
2018-01-05T12:56:10.481Z,14460
2018-01-05T12:57:10.544Z,14952
2018-01-05T12:58:10.475Z,15056
2018-01-05T12:59:10.549Z,15264
2018-01-05T13:00:10.492Z,15364
2018-01-05T13:01:10.477Z,14800
2018-01-05T13:02:10.550Z,13940
2018-01-05T13:03:10.481Z,13472
2018-01-05T13:04:10.548Z,13992
2018-01-05T13:05:10.485Z,14812
2018-01-05T13:06:10.552Z,15788
2018-01-05T13:07:10.520Z,16268
2018-01-05T13:08:10.554Z,15932
2018-01-05T13:09:10.480Z,15480
2018-01-05T13:10:10.490Z,15140
2018-01-05T13:11:10.555Z,14648
2018-01-05T13:12:10.486Z,14496
2018-01-05T13:13:10.554Z,14864
2018-01-05T13:14:10.484Z,15264
2018-01-05T13:15:10.558Z,14684
2018-01-05T13:16:10.487Z,13572
2018-01-05T13:17:10.457Z,11656
2018-01-05T13:18:10.517Z,10088
2018-01-05T13:19:10.429Z,9636
2018-01-05T13:20:10.463Z,9640
2018-01-05T13:21:10.507Z,9416
2018-01-05T13:22:10.438Z,9060
2018-01-05T13:23:10.460Z,8632
2018-01-05T13:24:10.511Z,8536
2018-01-05T13:25:10.465Z,8700
2018-01-05T13:26:10.507Z,9164
2018-01-05T13:27:10.493Z,9620
2018-01-05T13:28:10.492Z,10000
2018-01-05T13:29:10.578Z,10132
2018-01-05T13:30:10.497Z,9688
2018-01-05T13:31:10.565Z,9224
2018-01-05T13:32:10.512Z,9608
2018-01-05T13:33:10.567Z,9304
2018-01-05T13:34:10.568Z,8048
2018-01-05T13:35:10.497Z,7156
2018-01-05T13:36:10.572Z,7092
2018-01-05T13:37:10.442Z,7116
2018-01-05T13:38:10.503Z,7212
2018-01-05T13:39:10.570Z,7288
2018-01-05T13:40:10.497Z,7300
2018-01-05T13:41:10.569Z,7136
2018-01-05T13:42:10.573Z,6568
2018-01-05T13:43:10.543Z,6000
2018-01-05T13:44:10.579Z,5912
2018-01-05T13:45:10.504Z,6020
2018-01-05T13:46:10.571Z,6240
2018-01-05T13:47:10.507Z,6748
2018-01-05T13:48:10.577Z,7292
2018-01-05T13:49:10.544Z,7668
2018-01-05T13:50:10.586Z,7796
2018-01-05T13:51:10.520Z,7704
2018-01-05T13:52:10.580Z,7360
2018-01-05T13:53:10.509Z,6732
2018-01-05T13:54:10.584Z,6108
2018-01-05T13:55:10.509Z,5704